createdAt,value
2022-11-18T00:04:44.940Z,63.30
2022-11-18T00:09:46.700Z,62.75
2022-11-18T00:14:48.449Z,62.99
2022-11-18T00:19:51.562Z,63.08
2022-11-18T00:24:53.380Z,63.13
2022-11-18T00:29:55.200Z,63.38
2022-11-18T00:34:58.329Z,64.04
2022-11-18T00:40:00.054Z,63.15
2022-11-18T00:45:01.791Z,62.93
2022-11-18T00:50:05.859Z,63.85
2022-11-18T00:55:08.428Z,64.37
2022-11-18T01:00:10.783Z,65.10
2022-11-18T01:05:13.894Z,67.93
2022-11-18T01:10:16.418Z,67.10
2022-11-18T01:15:18.170Z,65.68
2022-11-18T01:20:21.278Z,63.64
2022-11-18T01:25:23.043Z,63.42
2022-11-18T01:30:24.832Z,62.36
2022-11-18T01:35:28.066Z,62.50
2022-11-18T01:40:29.804Z,62.73
2022-11-18T01:45:33.191Z,63.00
2022-11-18T01:50:38.487Z,62.24
2022-11-18T01:55:41.943Z,62.17
2022-11-18T02:00:43.688Z,61.43
2022-11-18T02:05:47.260Z,61.24
2022-11-18T02:10:49.037Z,61.90
2022-11-18T02:15:58.938Z,63.28
2022-11-18T02:21:08.533Z,62.98
2022-11-18T02:26:42.166Z,63.21
2022-11-18T02:31:48.191Z,62.10
2022-11-18T02:36:52.955Z,61.51
2022-11-18T02:41:54.727Z,61.93
2022-11-18T02:46:59.851Z,62.20
2022-11-18T02:52:01.769Z,62.53
2022-11-18T02:57:03.785Z,62.45
2022-11-18T03:02:06.917Z,63.57
2022-11-18T03:07:11.407Z,62.63
2022-11-18T03:12:17.559Z,62.81
2022-11-18T03:17:23.412Z,64.71
2022-11-18T03:22:27.857Z,62.47
2022-11-18T03:27:31.313Z,62.46
2022-11-18T03:32:37.268Z,61.92
2022-11-18T03:37:39.036Z,62.50
2022-11-18T03:42:41.598Z,63.23
2022-11-18T03:47:46.178Z,63.66
2022-11-18T03:52:48.236Z,63.20
2022-11-18T03:57:52.054Z,62.27
2022-11-18T04:02:55.153Z,61.89
2022-11-18T04:07:58.437Z,62.37
2022-11-18T04:13:06.117Z,61.84
2022-11-18T04:18:10.009Z,62.40
2022-11-18T04:23:11.810Z,61.32
2022-11-18T04:28:13.531Z,62.24
2022-11-18T04:33:16.996Z,59.77
2022-11-18T04:38:21.950Z,60.37
2022-11-18T04:43:24.114Z,61.82
2022-11-18T04:48:27.301Z,60.49
2022-11-18T04:53:29.016Z,61.16
2022-11-18T04:58:30.772Z,61.55
2022-11-18T05:03:33.836Z,61.33
2022-11-18T05:08:35.664Z,60.75
2022-11-18T05:13:37.438Z,61.81
2022-11-18T05:18:40.531Z,62.11
2022-11-18T05:23:42.296Z,61.55
2022-11-18T05:28:44.034Z,63.41
2022-11-18T05:33:47.124Z,63.17
2022-11-18T05:38:49.040Z,62.77
2022-11-18T05:43:50.901Z,62.59
2022-11-18T05:48:54.038Z,64.41
2022-11-18T05:53:55.975Z,62.97
2022-11-18T05:58:57.747Z,62.71
2022-11-18T06:04:01.012Z,61.98
2022-11-18T06:09:04.119Z,61.48
2022-11-18T06:14:07.270Z,61.32
2022-11-18T06:19:10.369Z,62.04
2022-11-18T06:24:12.204Z,61.42
2022-11-18T06:29:14.749Z,61.51
2022-11-18T06:34:18.060Z,62.49
2022-11-18T06:39:20.126Z,62.16
2022-11-18T06:44:22.171Z,63.20
2022-11-18T06:49:25.866Z,61.69
2022-11-18T06:54:27.620Z,61.68
2022-11-18T06:59:29.330Z,62.26
2022-11-18T07:04:34.598Z,61.23
2022-11-18T07:09:36.767Z,60.58
2022-11-18T07:14:38.525Z,61.76
2022-11-18T07:19:41.609Z,61.53
2022-11-18T07:24:43.367Z,60.53
2022-11-18T07:29:45.142Z,61.54
2022-11-18T07:34:48.269Z,61.45
2022-11-18T07:39:50.035Z,60.83
2022-11-18T07:44:51.826Z,61.97
2022-11-18T07:49:54.915Z,61.32
2022-11-18T07:54:56.659Z,62.18
2022-11-18T07:59:58.399Z,63.31
2022-11-18T08:05:01.545Z,61.95
2022-11-18T08:10:03.714Z,60.59
2022-11-18T08:15:06.171Z,60.84
2022-11-18T08:20:10.706Z,60.68
2022-11-18T08:25:12.811Z,60.12
2022-11-18T08:30:14.664Z,60.18
2022-11-18T08:35:17.712Z,60.67
2022-11-18T08:40:19.497Z,60.93
2022-11-18T08:45:21.362Z,60.64
2022-11-18T08:50:24.520Z,61.17
2022-11-18T08:55:26.295Z,60.82
2022-11-18T09:00:28.027Z,60.48
2022-11-18T09:05:31.140Z,60.27
2022-11-18T09:10:34.402Z,60.09
2022-11-18T09:15:36.155Z,60.09
2022-11-18T09:20:39.237Z,60.17
2022-11-18T09:25:40.950Z,59.24
2022-11-18T09:30:42.764Z,59.73
2022-11-18T09:35:45.848Z,59.91
2022-11-18T09:40:51.124Z,58.85
2022-11-18T09:45:54.829Z,59.49
2022-11-18T09:50:57.998Z,60.19
2022-11-18T09:55:59.757Z,58.73
2022-11-18T10:01:01.626Z,59.08
2022-11-18T10:06:11.120Z,59.11
2022-11-18T10:11:14.531Z,58.90
2022-11-18T10:16:28.002Z,58.53
2022-11-18T10:21:38.462Z,57.94
2022-11-18T10:26:41.105Z,58.90
2022-11-18T10:31:54.237Z,60.36
2022-11-18T10:37:02.512Z,58.84
2022-11-18T10:42:05.579Z,59.03
2022-11-18T10:47:16.434Z,58.75
2022-11-18T10:52:19.709Z,59.37
2022-11-18T10:57:22.072Z,59.02
2022-11-18T11:02:26.912Z,59.04
2022-11-18T11:07:32.762Z,57.64
2022-11-18T11:12:35.389Z,58.00
2022-11-18T11:17:39.068Z,57.02
2022-11-18T11:22:42.829Z,58.33
2022-11-18T11:33:22.464Z,59.95
2022-11-18T11:38:32.873Z,60.04
2022-11-18T11:43:37.574Z,59.25
2022-11-18T11:48:45.688Z,57.93
2022-11-18T11:54:02.352Z,57.49
2022-11-18T11:59:08.981Z,58.65
2022-11-18T12:04:19.115Z,57.36
2022-11-18T12:09:27.012Z,57.31
2022-11-18T12:14:33.718Z,56.44
2022-11-18T12:19:37.895Z,56.89
2022-11-18T12:24:42.360Z,55.95
2022-11-18T12:29:55.217Z,54.82
2022-11-18T12:35:00.960Z,55.18
2022-11-18T12:40:04.781Z,55.15
2022-11-18T12:45:39.610Z,55.20
2022-11-18T12:50:47.852Z,55.05
2022-11-18T12:55:50.985Z,54.42
2022-11-18T13:01:06.147Z,55.23
2022-11-18T13:06:14.684Z,55.05
2022-11-18T13:11:36.573Z,55.00
2022-11-18T13:16:57.177Z,55.33
2022-11-18T13:22:18.266Z,54.41
2022-11-18T13:27:28.396Z,54.73
2022-11-18T13:32:30.229Z,54.90
2022-11-18T13:37:34.025Z,55.71
2022-11-18T13:42:37.091Z,54.92
2022-11-18T13:47:41.117Z,54.42
2022-11-18T13:52:44.432Z,54.60
2022-11-18T13:57:48.332Z,54.39
2022-11-18T14:02:54.550Z,54.34
2022-11-18T14:08:01.634Z,54.63
2022-11-18T14:13:05.243Z,54.25
2022-11-18T14:18:17.169Z,54.20
2022-11-18T14:23:19.063Z,55.11
2022-11-18T14:28:23.480Z,55.54
2022-11-18T14:33:25.432Z,55.58
2022-11-18T14:38:52.363Z,54.44
2022-11-18T14:44:04.379Z,54.63
2022-11-18T14:49:09.472Z,53.97
2022-11-18T14:54:13.064Z,53.80
2022-11-18T14:59:17.054Z,53.71
2022-11-18T15:04:20.791Z,54.46
2022-11-18T15:09:23.051Z,54.79
2022-11-18T15:14:26.392Z,55.25
2022-11-18T15:19:28.337Z,54.68
2022-11-18T15:24:30.140Z,55.08
2022-11-18T15:29:33.965Z,55.03
2022-11-18T15:34:35.754Z,54.88
2022-11-18T15:39:37.624Z,54.67
2022-11-18T15:44:40.655Z,55.22
2022-11-18T15:49:45.194Z,55.53
2022-11-18T15:54:47.102Z,55.23
2022-11-18T15:59:50.150Z,54.23
2022-11-18T16:04:51.941Z,54.27
2022-11-18T16:10:12.159Z,54.59
2022-11-18T16:15:34.870Z,53.86
2022-11-18T16:20:36.939Z,54.08
2022-11-18T16:25:43.523Z,54.27
2022-11-18T16:31:07.615Z,54.43
2022-11-18T16:36:09.410Z,54.89
2022-11-18T16:41:30.012Z,54.05
2022-11-18T16:46:33.833Z,53.27
2022-11-18T16:51:35.739Z,52.49
2022-11-18T16:56:37.590Z,52.86
2022-11-18T17:01:40.834Z,53.25
2022-11-18T17:06:42.677Z,54.27
2022-11-18T17:11:44.581Z,54.08
2022-11-18T17:17:02.386Z,53.96
2022-11-18T17:22:14.863Z,53.62
2022-11-18T17:27:49.310Z,53.55
2022-11-18T17:32:56.026Z,53.99
2022-11-18T17:37:59.007Z,53.29
2022-11-18T17:43:05.047Z,53.33
2022-11-18T17:48:09.009Z,52.52
2022-11-18T17:53:20.897Z,52.47
2022-11-18T17:58:23.885Z,52.42
2022-11-18T18:03:26.969Z,53.57
2022-11-18T18:09:21.856Z,53.34
2022-11-18T18:17:13.542Z,53.77
2022-11-18T18:22:15.275Z,53.21
2022-11-18T18:27:17.031Z,52.92
2022-11-18T18:32:20.219Z,53.05
2022-11-18T18:37:22.102Z,53.65
2022-11-18T18:42:23.835Z,53.89
2022-11-18T18:47:26.949Z,53.12
2022-11-18T18:52:30.755Z,53.01
2022-11-18T18:57:32.503Z,53.41
2022-11-18T19:02:35.718Z,52.79
2022-11-18T19:07:37.640Z,52.57
2022-11-18T19:12:52.218Z,52.66
2022-11-18T19:17:55.370Z,52.47
2022-11-18T19:22:59.170Z,52.91
2022-11-18T19:28:00.898Z,53.13
2022-11-18T19:33:04.318Z,53.36
2022-11-18T19:38:06.079Z,53.81
2022-11-18T19:43:07.794Z,53.20
2022-11-18T19:48:10.889Z,53.40
2022-11-18T19:53:31.228Z,53.34
2022-11-18T19:58:33.229Z,53.68
2022-11-18T20:03:36.405Z,53.36
2022-11-18T20:08:38.765Z,53.52
2022-11-18T20:13:40.858Z,52.53
2022-11-18T20:18:44.552Z,52.28
2022-11-18T20:23:46.458Z,53.31
2022-11-18T20:28:53.016Z,53.68
2022-11-18T20:34:00.229Z,53.30
2022-11-18T20:39:03.563Z,52.67
2022-11-18T20:44:05.743Z,53.04
2022-11-18T20:49:09.005Z,53.26
2022-11-18T20:54:10.865Z,52.25
2022-11-18T20:59:12.815Z,52.33
2022-11-18T21:04:15.928Z,52.52
2022-11-18T21:09:17.847Z,52.81
2022-11-18T21:14:25.571Z,52.51
2022-11-18T21:19:29.082Z,52.66
2022-11-18T21:24:31.787Z,52.41
2022-11-18T21:29:33.572Z,52.51
2022-11-18T21:34:36.731Z,52.54
2022-11-18T21:39:38.499Z,53.30
2022-11-18T21:44:40.240Z,52.70
2022-11-18T21:49:43.296Z,53.33
2022-11-18T21:54:45.066Z,53.90
2022-11-18T21:59:46.945Z,54.18
2022-11-18T22:04:53.062Z,54.56
2022-11-18T22:09:55.288Z,54.46
2022-11-18T22:14:57.161Z,53.54
2022-11-18T22:20:00.329Z,54.07
2022-11-18T22:25:02.096Z,53.90
2022-11-18T22:30:04.884Z,53.75
2022-11-18T22:35:09.418Z,54.10
2022-11-18T22:40:12.220Z,55.15
2022-11-18T22:45:14.150Z,54.83
2022-11-18T22:50:17.475Z,55.00
2022-11-18T22:55:19.233Z,55.43
2022-11-18T23:00:21.142Z,55.90
2022-11-18T23:05:24.277Z,55.53
2022-11-18T23:10:26.024Z,55.95
2022-11-18T23:15:27.992Z,54.58
2022-11-18T23:20:31.056Z,54.20
2022-11-18T23:25:32.866Z,55.33
2022-11-18T23:30:34.610Z,55.19
2022-11-18T23:35:37.754Z,54.44
2022-11-18T23:40:39.455Z,54.52
2022-11-18T23:45:41.915Z,53.84
2022-11-18T23:50:52.318Z,54.11
2022-11-18T23:55:54.073Z,54.31
